sensor_id;sensor_type;location;lat;lon;timestamp;P1;durP1;ratioP1;P2;durP2;ratioP2
21432;SDS011;18592;49.708;10.900;2022-12-07T00:01:27;4.40;;;3.90;;
21432;SDS011;18592;49.708;10.900;2022-12-07T00:03:30;4.07;;;3.67;;
21432;SDS011;18592;49.708;10.900;2022-12-07T00:05:32;4.75;;;4.20;;
21432;SDS011;18592;49.708;10.900;2022-12-07T00:07:34;4.68;;;3.67;;
21432;SDS011;18592;49.708;10.900;2022-12-07T00:09:35;4.10;;;3.70;;
21432;SDS011;18592;49.708;10.900;2022-12-07T00:11:37;4.85;;;3.90;;
21432;SDS011;18592;49.708;10.900;2022-12-07T00:13:41;3.78;;;3.38;;
21432;SDS011;18592;49.708;10.900;2022-12-07T00:15:43;4.65;;;4.10;;
21432;SDS011;18592;49.708;10.900;2022-12-07T00:17:45;4.68;;;3.65;;
21432;SDS011;18592;49.708;10.900;2022-12-07T00:19:47;4.97;;;3.90;;
21432;SDS011;18592;49.708;10.900;2022-12-07T00:21:48;4.50;;;3.75;;
21432;SDS011;18592;49.708;10.900;2022-12-07T00:23:50;5.68;;;4.07;;
21432;SDS011;18592;49.708;10.900;2022-12-07T00:25:52;4.70;;;4.18;;
21432;SDS011;18592;49.708;10.900;2022-12-07T00:27:54;3.90;;;3.53;;
21432;SDS011;18592;49.708;10.900;2022-12-07T00:29:58;4.25;;;3.65;;
21432;SDS011;18592;49.708;10.900;2022-12-07T00:32:07;4.95;;;4.22;;
21432;SDS011;18592;49.708;10.900;2022-12-07T00:34:13;6.80;;;4.47;;
21432;SDS011;18592;49.708;10.900;2022-12-07T00:36:20;5.78;;;4.25;;
21432;SDS011;18592;49.708;10.900;2022-12-07T00:38:28;6.10;;;4.30;;
21432;SDS011;18592;49.708;10.900;2022-12-07T00:40:32;4.72;;;3.85;;
21432;SDS011;18592;49.708;10.900;2022-12-07T00:42:33;5.40;;;4.28;;
21432;SDS011;18592;49.708;10.900;2022-12-07T00:44:35;5.35;;;4.38;;
21432;SDS011;18592;49.708;10.900;2022-12-07T00:46:37;5.72;;;4.90;;
21432;SDS011;18592;49.708;10.900;2022-12-07T00:48:38;6.00;;;4.67;;
21432;SDS011;18592;49.708;10.900;2022-12-07T00:50:40;5.47;;;4.65;;
21432;SDS011;18592;49.708;10.900;2022-12-07T00:52:42;5.47;;;4.25;;
21432;SDS011;18592;49.708;10.900;2022-12-07T00:54:46;5.90;;;4.72;;
21432;SDS011;18592;49.708;10.900;2022-12-07T00:56:48;5.60;;;4.50;;
21432;SDS011;18592;49.708;10.900;2022-12-07T00:59:02;5.80;;;4.55;;
21432;SDS011;18592;49.708;10.900;2022-12-07T01:01:06;4.93;;;4.35;;
21432;SDS011;18592;49.708;10.900;2022-12-07T01:03:10;5.45;;;4.63;;
21432;SDS011;18592;49.708;10.900;2022-12-07T01:05:16;6.57;;;5.00;;
21432;SDS011;18592;49.708;10.900;2022-12-07T01:07:17;4.85;;;4.35;;
21432;SDS011;18592;49.708;10.900;2022-12-07T01:09:22;5.35;;;4.68;;
21432;SDS011;18592;49.708;10.900;2022-12-07T01:11:24;5.93;;;4.63;;
21432;SDS011;18592;49.708;10.900;2022-12-07T01:13:28;6.35;;;4.82;;
21432;SDS011;18592;49.708;10.900;2022-12-07T01:15:30;6.80;;;4.90;;
21432;SDS011;18592;49.708;10.900;2022-12-07T01:17:32;5.45;;;4.70;;
21432;SDS011;18592;49.708;10.900;2022-12-07T01:19:33;5.50;;;4.95;;
21432;SDS011;18592;49.708;10.900;2022-12-07T01:21:35;5.45;;;4.82;;
21432;SDS011;18592;49.708;10.900;2022-12-07T01:23:39;4.93;;;4.45;;
21432;SDS011;18592;49.708;10.900;2022-12-07T01:25:40;6.75;;;4.70;;
21432;SDS011;18592;49.708;10.900;2022-12-07T01:27:43;5.20;;;4.65;;
21432;SDS011;18592;49.708;10.900;2022-12-07T01:29:45;6.05;;;5.05;;
21432;SDS011;18592;49.708;10.900;2022-12-07T01:31:48;5.67;;;4.50;;
21432;SDS011;18592;49.708;10.900;2022-12-07T01:33:51;5.35;;;4.57;;
21432;SDS011;18592;49.708;10.900;2022-12-07T01:35:55;6.32;;;4.57;;
21432;SDS011;18592;49.708;10.900;2022-12-07T01:38:05;5.82;;;5.07;;
21432;SDS011;18592;49.708;10.900;2022-12-07T01:40:07;5.75;;;4.50;;
21432;SDS011;18592;49.708;10.900;2022-12-07T01:42:10;6.40;;;4.82;;
21432;SDS011;18592;49.708;10.900;2022-12-07T01:46:29;6.68;;;5.20;;
21432;SDS011;18592;49.708;10.900;2022-12-07T01:48:37;6.38;;;5.30;;
21432;SDS011;18592;49.708;10.900;2022-12-07T01:50:41;6.75;;;5.28;;
21432;SDS011;18592;49.708;10.900;2022-12-07T01:52:48;6.80;;;5.53;;
21432;SDS011;18592;49.708;10.900;2022-12-07T01:54:59;6.32;;;5.32;;
21432;SDS011;18592;49.708;10.900;2022-12-07T01:57:05;7.10;;;5.10;;
21432;SDS011;18592;49.708;10.900;2022-12-07T01:59:09;7.85;;;6.00;;
21432;SDS011;18592;49.708;10.900;2022-12-07T02:01:11;7.63;;;5.57;;
21432;SDS011;18592;49.708;10.900;2022-12-07T02:03:18;6.55;;;5.63;;
21432;SDS011;18592;49.708;10.900;2022-12-07T02:05:25;7.50;;;6.13;;
21432;SDS011;18592;49.708;10.900;2022-12-07T02:07:27;6.10;;;5.28;;
21432;SDS011;18592;49.708;10.900;2022-12-07T02:09:30;6.57;;;5.47;;
21432;SDS011;18592;49.708;10.900;2022-12-07T02:11:35;6.97;;;5.38;;
21432;SDS011;18592;49.708;10.900;2022-12-07T02:13:38;7.10;;;5.68;;
21432;SDS011;18592;49.708;10.900;2022-12-07T02:18:25;6.35;;;5.70;;
21432;SDS011;18592;49.708;10.900;2022-12-07T02:20:54;7.07;;;6.20;;
21432;SDS011;18592;49.708;10.900;2022-12-07T02:30:31;6.30;;;5.38;;
21432;SDS011;18592;49.708;10.900;2022-12-07T02:37:08;6.15;;;5.45;;
21432;SDS011;18592;49.708;10.900;2022-12-07T02:39:28;7.20;;;6.07;;
21432;SDS011;18592;49.708;10.900;2022-12-07T02:41:37;8.65;;;5.63;;
21432;SDS011;18592;49.708;10.900;2022-12-07T02:43:50;8.43;;;5.88;;
21432;SDS011;18592;49.708;10.900;2022-12-07T02:45:57;6.75;;;5.30;;
21432;SDS011;18592;49.708;10.900;2022-12-07T02:48:04;7.95;;;5.47;;
21432;SDS011;18592;49.708;10.900;2022-12-07T02:50:08;7.38;;;6.05;;
21432;SDS011;18592;49.708;10.900;2022-12-07T02:52:10;7.68;;;6.05;;
21432;SDS011;18592;49.708;10.900;2022-12-07T02:54:12;5.93;;;4.85;;
21432;SDS011;18592;49.708;10.900;2022-12-07T02:58:41;7.53;;;5.57;;
21432;SDS011;18592;49.708;10.900;2022-12-07T03:03:22;6.32;;;5.30;;
21432;SDS011;18592;49.708;10.900;2022-12-07T03:10:14;6.88;;;5.63;;
21432;SDS011;18592;49.708;10.900;2022-12-07T03:14:56;6.95;;;5.47;;
21432;SDS011;18592;49.708;10.900;2022-12-07T03:17:09;7.30;;;5.73;;
21432;SDS011;18592;49.708;10.900;2022-12-07T03:19:16;6.88;;;5.47;;
21432;SDS011;18592;49.708;10.900;2022-12-07T03:21:25;6.82;;;5.72;;
21432;SDS011;18592;49.708;10.900;2022-12-07T03:23:29;7.13;;;5.57;;
21432;SDS011;18592;49.708;10.900;2022-12-07T03:25:35;7.65;;;5.85;;
21432;SDS011;18592;49.708;10.900;2022-12-07T03:28:04;6.95;;;5.65;;
21432;SDS011;18592;49.708;10.900;2022-12-07T03:30:08;7.07;;;5.47;;
21432;SDS011;18592;49.708;10.900;2022-12-07T03:32:19;7.10;;;5.78;;
21432;SDS011;18592;49.708;10.900;2022-12-07T03:34:31;8.35;;;5.90;;
21432;SDS011;18592;49.708;10.900;2022-12-07T03:37:14;7.80;;;6.10;;
21432;SDS011;18592;49.708;10.900;2022-12-07T03:41:33;8.52;;;6.05;;
21432;SDS011;18592;49.708;10.900;2022-12-07T03:43:45;7.87;;;5.70;;
21432;SDS011;18592;49.708;10.900;2022-12-07T03:50:42;7.78;;;6.57;;
21432;SDS011;18592;49.708;10.900;2022-12-07T03:53:02;7.07;;;5.72;;
21432;SDS011;18592;49.708;10.900;2022-12-07T03:55:14;8.10;;;5.97;;
21432;SDS011;18592;49.708;10.900;2022-12-07T03:57:32;8.75;;;6.32;;
21432;SDS011;18592;49.708;10.900;2022-12-07T03:59:36;6.95;;;5.70;;
21432;SDS011;18592;49.708;10.900;2022-12-07T04:01:41;8.70;;;6.57;;
21432;SDS011;18592;49.708;10.900;2022-12-07T04:03:52;8.23;;;6.30;;
21432;SDS011;18592;49.708;10.900;2022-12-07T04:05:54;7.93;;;6.45;;
21432;SDS011;18592;49.708;10.900;2022-12-07T04:07:56;7.78;;;5.95;;
21432;SDS011;18592;49.708;10.900;2022-12-07T04:09:57;7.93;;;6.33;;
21432;SDS011;18592;49.708;10.900;2022-12-07T04:11:59;8.93;;;6.43;;
21432;SDS011;18592;49.708;10.900;2022-12-07T04:14:01;8.03;;;6.27;;
21432;SDS011;18592;49.708;10.900;2022-12-07T04:16:21;7.72;;;6.25;;
21432;SDS011;18592;49.708;10.900;2022-12-07T04:18:22;8.23;;;6.37;;
21432;SDS011;18592;49.708;10.900;2022-12-07T04:20:24;9.03;;;6.27;;
21432;SDS011;18592;49.708;10.900;2022-12-07T04:22:26;11.25;;;7.10;;
21432;SDS011;18592;49.708;10.900;2022-12-07T04:24:28;7.93;;;6.18;;
21432;SDS011;18592;49.708;10.900;2022-12-07T04:26:35;8.67;;;6.87;;
21432;SDS011;18592;49.708;10.900;2022-12-07T04:28:38;10.00;;;7.20;;
21432;SDS011;18592;49.708;10.900;2022-12-07T04:30:40;9.13;;;6.67;;
21432;SDS011;18592;49.708;10.900;2022-12-07T04:32:43;9.10;;;6.70;;
21432;SDS011;18592;49.708;10.900;2022-12-07T04:34:44;8.73;;;6.57;;
21432;SDS011;18592;49.708;10.900;2022-12-07T04:36:47;10.60;;;7.37;;
21432;SDS011;18592;49.708;10.900;2022-12-07T04:38:49;9.77;;;7.50;;
21432;SDS011;18592;49.708;10.900;2022-12-07T04:40:50;8.67;;;6.53;;
21432;SDS011;18592;49.708;10.900;2022-12-07T04:42:52;10.07;;;7.43;;
21432;SDS011;18592;49.708;10.900;2022-12-07T04:44:54;10.93;;;7.47;;
21432;SDS011;18592;49.708;10.900;2022-12-07T04:46:56;11.07;;;8.00;;
21432;SDS011;18592;49.708;10.900;2022-12-07T04:48:58;9.23;;;7.43;;
21432;SDS011;18592;49.708;10.900;2022-12-07T04:51:01;10.33;;;7.77;;
21432;SDS011;18592;49.708;10.900;2022-12-07T04:53:04;9.07;;;7.10;;
21432;SDS011;18592;49.708;10.900;2022-12-07T04:55:06;11.38;;;8.10;;
21432;SDS011;18592;49.708;10.900;2022-12-07T04:57:08;9.52;;;7.25;;
21432;SDS011;18592;49.708;10.900;2022-12-07T04:59:12;12.85;;;7.90;;
21432;SDS011;18592;49.708;10.900;2022-12-07T05:01:16;9.80;;;7.70;;
21432;SDS011;18592;49.708;10.900;2022-12-07T05:03:18;10.67;;;7.23;;
21432;SDS011;18592;49.708;10.900;2022-12-07T05:05:20;9.98;;;7.80;;
21432;SDS011;18592;49.708;10.900;2022-12-07T05:07:22;11.25;;;7.70;;
21432;SDS011;18592;49.708;10.900;2022-12-07T05:09:24;11.07;;;8.35;;
21432;SDS011;18592;49.708;10.900;2022-12-07T05:11:25;11.45;;;8.23;;
21432;SDS011;18592;49.708;10.900;2022-12-07T05:13:39;11.45;;;8.15;;
21432;SDS011;18592;49.708;10.900;2022-12-07T05:15:41;10.30;;;7.73;;
21432;SDS011;18592;49.708;10.900;2022-12-07T05:17:45;12.00;;;8.65;;
21432;SDS011;18592;49.708;10.900;2022-12-07T05:19:46;12.23;;;8.48;;
21432;SDS011;18592;49.708;10.900;2022-12-07T05:21:48;11.82;;;8.63;;
21432;SDS011;18592;49.708;10.900;2022-12-07T05:23:50;12.27;;;8.75;;
21432;SDS011;18592;49.708;10.900;2022-12-07T05:25:52;11.48;;;8.35;;
21432;SDS011;18592;49.708;10.900;2022-12-07T05:27:54;11.17;;;8.27;;
21432;SDS011;18592;49.708;10.900;2022-12-07T05:29:56;11.15;;;8.80;;
21432;SDS011;18592;49.708;10.900;2022-12-07T05:31:58;12.27;;;9.00;;
21432;SDS011;18592;49.708;10.900;2022-12-07T05:34:00;12.07;;;9.10;;
21432;SDS011;18592;49.708;10.900;2022-12-07T05:36:02;13.15;;;9.15;;
21432;SDS011;18592;49.708;10.900;2022-12-07T05:38:06;12.25;;;8.90;;
21432;SDS011;18592;49.708;10.900;2022-12-07T05:40:11;12.88;;;9.00;;
21432;SDS011;18592;49.708;10.900;2022-12-07T05:42:13;12.10;;;9.20;;
21432;SDS011;18592;49.708;10.900;2022-12-07T05:44:15;12.87;;;9.40;;
21432;SDS011;18592;49.708;10.900;2022-12-07T05:46:17;12.20;;;9.15;;
21432;SDS011;18592;49.708;10.900;2022-12-07T05:48:22;13.60;;;9.32;;
21432;SDS011;18592;49.708;10.900;2022-12-07T05:50:24;13.77;;;9.73;;
21432;SDS011;18592;49.708;10.900;2022-12-07T05:52:38;11.38;;;8.40;;
21432;SDS011;18592;49.708;10.900;2022-12-07T05:54:40;13.07;;;9.32;;
21432;SDS011;18592;49.708;10.900;2022-12-07T05:56:44;12.35;;;9.13;;
21432;SDS011;18592;49.708;10.900;2022-12-07T05:58:46;13.13;;;9.05;;
21432;SDS011;18592;49.708;10.900;2022-12-07T06:01:06;13.47;;;8.63;;
21432;SDS011;18592;49.708;10.900;2022-12-07T06:03:08;10.97;;;8.20;;
21432;SDS011;18592;49.708;10.900;2022-12-07T06:05:10;12.20;;;8.65;;
21432;SDS011;18592;49.708;10.900;2022-12-07T06:07:12;11.30;;;9.00;;
21432;SDS011;18592;49.708;10.900;2022-12-07T06:09:20;13.88;;;9.45;;
21432;SDS011;18592;49.708;10.900;2022-12-07T06:11:23;13.38;;;9.13;;
21432;SDS011;18592;49.708;10.900;2022-12-07T06:13:43;12.75;;;9.05;;
21432;SDS011;18592;49.708;10.900;2022-12-07T06:15:47;12.20;;;8.95;;
21432;SDS011;18592;49.708;10.900;2022-12-07T06:17:49;12.13;;;8.68;;
21432;SDS011;18592;49.708;10.900;2022-12-07T06:19:52;13.57;;;9.20;;
21432;SDS011;18592;49.708;10.900;2022-12-07T06:21:54;13.15;;;9.43;;
21432;SDS011;18592;49.708;10.900;2022-12-07T06:23:56;11.53;;;8.90;;
21432;SDS011;18592;49.708;10.900;2022-12-07T06:25:58;11.90;;;9.10;;
21432;SDS011;18592;49.708;10.900;2022-12-07T06:28:00;13.50;;;9.57;;
21432;SDS011;18592;49.708;10.900;2022-12-07T06:30:05;11.30;;;8.60;;
21432;SDS011;18592;49.708;10.900;2022-12-07T06:32:11;11.82;;;8.80;;
21432;SDS011;18592;49.708;10.900;2022-12-07T06:34:14;11.73;;;8.95;;
21432;SDS011;18592;49.708;10.900;2022-12-07T06:36:17;12.60;;;9.43;;
21432;SDS011;18592;49.708;10.900;2022-12-07T06:38:27;11.70;;;8.93;;
21432;SDS011;18592;49.708;10.900;2022-12-07T06:40:28;13.00;;;8.90;;
21432;SDS011;18592;49.708;10.900;2022-12-07T06:42:30;11.10;;;8.35;;
21432;SDS011;18592;49.708;10.900;2022-12-07T06:44:32;10.23;;;8.30;;
21432;SDS011;18592;49.708;10.900;2022-12-07T06:46:34;13.02;;;9.65;;
21432;SDS011;18592;49.708;10.900;2022-12-07T06:48:36;12.18;;;8.38;;
21432;SDS011;18592;49.708;10.900;2022-12-07T06:50:38;12.23;;;8.57;;
21432;SDS011;18592;49.708;10.900;2022-12-07T06:52:40;12.48;;;8.70;;
21432;SDS011;18592;49.708;10.900;2022-12-07T06:54:41;12.27;;;9.02;;
21432;SDS011;18592;49.708;10.900;2022-12-07T06:56:43;12.25;;;9.13;;
21432;SDS011;18592;49.708;10.900;2022-12-07T06:58:45;11.77;;;8.65;;
21432;SDS011;18592;49.708;10.900;2022-12-07T07:00:47;12.20;;;8.85;;
21432;SDS011;18592;49.708;10.900;2022-12-07T07:02:50;11.53;;;8.93;;
21432;SDS011;18592;49.708;10.900;2022-12-07T07:04:52;11.23;;;8.32;;
21432;SDS011;18592;49.708;10.900;2022-12-07T07:06:53;11.68;;;8.50;;
21432;SDS011;18592;49.708;10.900;2022-12-07T07:09:00;12.23;;;9.27;;
21432;SDS011;18592;49.708;10.900;2022-12-07T07:11:02;11.33;;;8.80;;
21432;SDS011;18592;49.708;10.900;2022-12-07T07:13:04;12.45;;;8.65;;
21432;SDS011;18592;49.708;10.900;2022-12-07T07:15:12;12.40;;;8.95;;
21432;SDS011;18592;49.708;10.900;2022-12-07T07:17:13;11.25;;;8.85;;
21432;SDS011;18592;49.708;10.900;2022-12-07T07:19:15;11.93;;;8.73;;
21432;SDS011;18592;49.708;10.900;2022-12-07T07:21:16;11.52;;;9.27;;
21432;SDS011;18592;49.708;10.900;2022-12-07T07:23:18;12.70;;;8.70;;
21432;SDS011;18592;49.708;10.900;2022-12-07T07:25:20;12.10;;;9.15;;
21432;SDS011;18592;49.708;10.900;2022-12-07T07:27:22;12.05;;;8.82;;
21432;SDS011;18592;49.708;10.900;2022-12-07T07:29:23;11.50;;;8.88;;
21432;SDS011;18592;49.708;10.900;2022-12-07T07:31:25;12.00;;;8.93;;
21432;SDS011;18592;49.708;10.900;2022-12-07T07:33:29;10.70;;;8.27;;
21432;SDS011;18592;49.708;10.900;2022-12-07T07:35:32;12.77;;;8.73;;
21432;SDS011;18592;49.708;10.900;2022-12-07T07:37:35;10.70;;;8.25;;
21432;SDS011;18592;49.708;10.900;2022-12-07T07:39:36;14.60;;;9.25;;
21432;SDS011;18592;49.708;10.900;2022-12-07T07:41:41;11.25;;;8.55;;
21432;SDS011;18592;49.708;10.900;2022-12-07T07:43:47;12.43;;;8.33;;
21432;SDS011;18592;49.708;10.900;2022-12-07T07:45:48;11.87;;;8.27;;
21432;SDS011;18592;49.708;10.900;2022-12-07T07:47:50;12.27;;;8.65;;
21432;SDS011;18592;49.708;10.900;2022-12-07T07:49:52;12.05;;;8.48;;
21432;SDS011;18592;49.708;10.900;2022-12-07T07:51:54;11.07;;;8.10;;
21432;SDS011;18592;49.708;10.900;2022-12-07T07:53:56;11.82;;;8.32;;
21432;SDS011;18592;49.708;10.900;2022-12-07T07:55:57;11.15;;;8.27;;
21432;SDS011;18592;49.708;10.900;2022-12-07T07:57:59;10.38;;;7.97;;
21432;SDS011;18592;49.708;10.900;2022-12-07T08:00:06;10.27;;;7.50;;
21432;SDS011;18592;49.708;10.900;2022-12-07T08:02:14;11.97;;;8.77;;
21432;SDS011;18592;49.708;10.900;2022-12-07T08:04:18;10.30;;;8.07;;
21432;SDS011;18592;49.708;10.900;2022-12-07T08:06:20;12.20;;;8.48;;
21432;SDS011;18592;49.708;10.900;2022-12-07T08:08:22;12.00;;;8.60;;
21432;SDS011;18592;49.708;10.900;2022-12-07T08:10:25;13.33;;;8.97;;
21432;SDS011;18592;49.708;10.900;2022-12-07T08:12:27;12.27;;;8.93;;
21432;SDS011;18592;49.708;10.900;2022-12-07T08:14:29;12.02;;;8.52;;
21432;SDS011;18592;49.708;10.900;2022-12-07T08:16:30;11.55;;;9.05;;
21432;SDS011;18592;49.708;10.900;2022-12-07T08:18:41;11.57;;;8.53;;
21432;SDS011;18592;49.708;10.900;2022-12-07T08:20:44;12.32;;;8.32;;
21432;SDS011;18592;49.708;10.900;2022-12-07T08:22:46;10.90;;;8.18;;
21432;SDS011;18592;49.708;10.900;2022-12-07T08:24:47;12.45;;;9.20;;
21432;SDS011;18592;49.708;10.900;2022-12-07T08:26:49;12.25;;;8.65;;
21432;SDS011;18592;49.708;10.900;2022-12-07T08:28:52;12.98;;;8.63;;
21432;SDS011;18592;49.708;10.900;2022-12-07T08:31:04;11.43;;;8.43;;
21432;SDS011;18592;49.708;10.900;2022-12-07T08:33:08;11.50;;;8.30;;
21432;SDS011;18592;49.708;10.900;2022-12-07T08:35:12;10.97;;;7.83;;
21432;SDS011;18592;49.708;10.900;2022-12-07T08:37:14;10.35;;;8.07;;
21432;SDS011;18592;49.708;10.900;2022-12-07T08:39:16;10.77;;;8.17;;
21432;SDS011;18592;49.708;10.900;2022-12-07T08:41:32;12.07;;;8.37;;
21432;SDS011;18592;49.708;10.900;2022-12-07T08:43:34;11.05;;;7.95;;
21432;SDS011;18592;49.708;10.900;2022-12-07T08:45:37;11.30;;;8.02;;
21432;SDS011;18592;49.708;10.900;2022-12-07T08:47:44;11.88;;;8.40;;
21432;SDS011;18592;49.708;10.900;2022-12-07T08:49:51;10.07;;;7.88;;
21432;SDS011;18592;49.708;10.900;2022-12-07T08:51:54;11.38;;;8.20;;
21432;SDS011;18592;49.708;10.900;2022-12-07T08:53:57;11.43;;;8.02;;
21432;SDS011;18592;49.708;10.900;2022-12-07T08:56:03;12.02;;;8.18;;
21432;SDS011;18592;49.708;10.900;2022-12-07T08:58:08;9.48;;;7.30;;
21432;SDS011;18592;49.708;10.900;2022-12-07T09:00:15;9.98;;;7.65;;
21432;SDS011;18592;49.708;10.900;2022-12-07T09:02:25;10.15;;;7.57;;
21432;SDS011;18592;49.708;10.900;2022-12-07T09:04:27;11.20;;;7.88;;
21432;SDS011;18592;49.708;10.900;2022-12-07T09:06:29;9.73;;;7.68;;
21432;SDS011;18592;49.708;10.900;2022-12-07T09:08:35;12.10;;;8.02;;
21432;SDS011;18592;49.708;10.900;2022-12-07T09:10:43;9.80;;;7.13;;
21432;SDS011;18592;49.708;10.900;2022-12-07T09:12:45;10.82;;;7.95;;
21432;SDS011;18592;49.708;10.900;2022-12-07T09:14:47;10.45;;;8.10;;
21432;SDS011;18592;49.708;10.900;2022-12-07T09:16:48;12.82;;;8.30;;
21432;SDS011;18592;49.708;10.900;2022-12-07T09:18:50;9.73;;;7.20;;
21432;SDS011;18592;49.708;10.900;2022-12-07T09:20:52;10.40;;;7.78;;
21432;SDS011;18592;49.708;10.900;2022-12-07T09:22:56;11.07;;;6.90;;
21432;SDS011;18592;49.708;10.900;2022-12-07T09:25:01;9.70;;;7.43;;
21432;SDS011;18592;49.708;10.900;2022-12-07T09:27:04;10.23;;;7.53;;
21432;SDS011;18592;49.708;10.900;2022-12-07T09:29:12;12.80;;;8.45;;
21432;SDS011;18592;49.708;10.900;2022-12-07T09:31:14;9.82;;;7.20;;
21432;SDS011;18592;49.708;10.900;2022-12-07T09:33:24;9.50;;;7.20;;
21432;SDS011;18592;49.708;10.900;2022-12-07T09:35:26;10.18;;;7.20;;
21432;SDS011;18592;49.708;10.900;2022-12-07T09:37:29;10.73;;;7.20;;
21432;SDS011;18592;49.708;10.900;2022-12-07T09:39:33;9.40;;;7.13;;
21432;SDS011;18592;49.708;10.900;2022-12-07T09:41:37;11.27;;;7.93;;
21432;SDS011;18592;49.708;10.900;2022-12-07T09:43:44;10.55;;;7.72;;
21432;SDS011;18592;49.708;10.900;2022-12-07T09:45:47;10.48;;;7.03;;
21432;SDS011;18592;49.708;10.900;2022-12-07T09:47:51;10.23;;;7.25;;
21432;SDS011;18592;49.708;10.900;2022-12-07T09:49:55;9.73;;;7.40;;
21432;SDS011;18592;49.708;10.900;2022-12-07T09:52:16;9.43;;;7.18;;
21432;SDS011;18592;49.708;10.900;2022-12-07T09:54:21;9.85;;;7.35;;
21432;SDS011;18592;49.708;10.900;2022-12-07T09:56:23;9.65;;;7.30;;
21432;SDS011;18592;49.708;10.900;2022-12-07T09:58:26;10.63;;;7.70;;
21432;SDS011;18592;49.708;10.900;2022-12-07T10:00:37;8.60;;;6.70;;
21432;SDS011;18592;49.708;10.900;2022-12-07T10:03:01;8.05;;;6.70;;
21432;SDS011;18592;49.708;10.900;2022-12-07T10:05:10;9.20;;;7.18;;
21432;SDS011;18592;49.708;10.900;2022-12-07T10:07:23;9.90;;;7.05;;
21432;SDS011;18592;49.708;10.900;2022-12-07T10:09:25;9.80;;;6.95;;
21432;SDS011;18592;49.708;10.900;2022-12-07T10:11:30;10.10;;;7.43;;
21432;SDS011;18592;49.708;10.900;2022-12-07T10:13:36;9.57;;;7.35;;
21432;SDS011;18592;49.708;10.900;2022-12-07T10:17:53;10.00;;;7.65;;
21432;SDS011;18592;49.708;10.900;2022-12-07T10:22:17;12.30;;;7.60;;
21432;SDS011;18592;49.708;10.900;2022-12-07T10:24:19;11.93;;;7.90;;
21432;SDS011;18592;49.708;10.900;2022-12-07T10:26:27;9.68;;;7.15;;
21432;SDS011;18592;49.708;10.900;2022-12-07T10:28:35;10.70;;;7.35;;
21432;SDS011;18592;49.708;10.900;2022-12-07T10:30:56;10.15;;;7.13;;
21432;SDS011;18592;49.708;10.900;2022-12-07T10:33:15;9.30;;;7.03;;
21432;SDS011;18592;49.708;10.900;2022-12-07T10:35:30;9.05;;;7.05;;
21432;SDS011;18592;49.708;10.900;2022-12-07T10:37:32;9.77;;;7.15;;
21432;SDS011;18592;49.708;10.900;2022-12-07T10:39:42;10.55;;;7.70;;
21432;SDS011;18592;49.708;10.900;2022-12-07T10:41:59;10.13;;;7.72;;
21432;SDS011;18592;49.708;10.900;2022-12-07T10:44:03;8.65;;;6.75;;
21432;SDS011;18592;49.708;10.900;2022-12-07T10:48:51;8.25;;;6.53;;
21432;SDS011;18592;49.708;10.900;2022-12-07T10:51:12;10.13;;;6.38;;
21432;SDS011;18592;49.708;10.900;2022-12-07T10:53:36;8.13;;;6.45;;
21432;SDS011;18592;49.708;10.900;2022-12-07T10:55:44;9.13;;;7.10;;
21432;SDS011;18592;49.708;10.900;2022-12-07T11:00:23;9.15;;;7.15;;
21432;SDS011;18592;49.708;10.900;2022-12-07T11:09:51;8.02;;;6.22;;
21432;SDS011;18592;49.708;10.900;2022-12-07T11:12:26;9.60;;;7.25;;
21432;SDS011;18592;49.708;10.900;2022-12-07T11:14:52;9.10;;;7.28;;
21432;SDS011;18592;49.708;10.900;2022-12-07T11:17:04;9.98;;;7.15;;
21432;SDS011;18592;49.708;10.900;2022-12-07T11:21:57;8.57;;;6.80;;
21432;SDS011;18592;49.708;10.900;2022-12-07T11:24:10;8.60;;;6.70;;
21432;SDS011;18592;49.708;10.900;2022-12-07T11:33:27;8.70;;;7.00;;
21432;SDS011;18592;49.708;10.900;2022-12-07T11:35:43;7.70;;;6.55;;
21432;SDS011;18592;49.708;10.900;2022-12-07T11:37:57;8.30;;;6.53;;
21432;SDS011;18592;49.708;10.900;2022-12-07T11:40:03;8.85;;;6.97;;
21432;SDS011;18592;49.708;10.900;2022-12-07T11:42:18;8.18;;;6.70;;
21432;SDS011;18592;49.708;10.900;2022-12-07T11:46:38;8.85;;;6.75;;
21432;SDS011;18592;49.708;10.900;2022-12-07T11:49:02;7.97;;;5.97;;
21432;SDS011;18592;49.708;10.900;2022-12-07T11:51:13;8.18;;;6.13;;
21432;SDS011;18592;49.708;10.900;2022-12-07T11:53:22;8.40;;;6.65;;
21432;SDS011;18592;49.708;10.900;2022-12-07T11:57:44;8.10;;;6.45;;
21432;SDS011;18592;49.708;10.900;2022-12-07T12:00:01;7.95;;;5.90;;
21432;SDS011;18592;49.708;10.900;2022-12-07T12:07:03;8.52;;;6.13;;
21432;SDS011;18592;49.708;10.900;2022-12-07T12:09:29;9.23;;;6.57;;
21432;SDS011;18592;49.708;10.900;2022-12-07T12:16:45;7.75;;;6.05;;
21432;SDS011;18592;49.708;10.900;2022-12-07T12:21:37;9.27;;;7.20;;
21432;SDS011;18592;49.708;10.900;2022-12-07T12:23:43;8.43;;;6.60;;
21432;SDS011;18592;49.708;10.900;2022-12-07T12:25:59;8.15;;;6.20;;
21432;SDS011;18592;49.708;10.900;2022-12-07T12:28:03;9.68;;;7.20;;
21432;SDS011;18592;49.708;10.900;2022-12-07T12:30:06;8.30;;;6.45;;
21432;SDS011;18592;49.708;10.900;2022-12-07T12:39:35;8.65;;;6.43;;
21432;SDS011;18592;49.708;10.900;2022-12-07T12:43:46;8.65;;;6.20;;
21432;SDS011;18592;49.708;10.900;2022-12-07T12:46:35;8.85;;;6.50;;
21432;SDS011;18592;49.708;10.900;2022-12-07T12:48:35;8.43;;;6.03;;
21432;SDS011;18592;49.708;10.900;2022-12-07T12:50:38;8.43;;;6.30;;
21432;SDS011;18592;49.708;10.900;2022-12-07T12:57:18;7.75;;;6.00;;
21432;SDS011;18592;49.708;10.900;2022-12-07T13:01:38;7.22;;;5.32;;
21432;SDS011;18592;49.708;10.900;2022-12-07T13:03:51;6.93;;;5.28;;
21432;SDS011;18592;49.708;10.900;2022-12-07T13:08:21;6.72;;;5.20;;
21432;SDS011;18592;49.708;10.900;2022-12-07T13:10:38;7.05;;;4.90;;
21432;SDS011;18592;49.708;10.900;2022-12-07T13:12:42;6.40;;;5.18;;
21432;SDS011;18592;49.708;10.900;2022-12-07T13:14:59;7.13;;;5.40;;
21432;SDS011;18592;49.708;10.900;2022-12-07T13:17:02;7.25;;;4.57;;
21432;SDS011;18592;49.708;10.900;2022-12-07T13:19:27;8.45;;;5.25;;
21432;SDS011;18592;49.708;10.900;2022-12-07T13:21:44;6.70;;;4.80;;
21432;SDS011;18592;49.708;10.900;2022-12-07T13:28:21;5.75;;;4.18;;
21432;SDS011;18592;49.708;10.900;2022-12-07T13:30:27;6.18;;;4.60;;
21432;SDS011;18592;49.708;10.900;2022-12-07T13:32:31;7.53;;;4.57;;
21432;SDS011;18592;49.708;10.900;2022-12-07T13:36:37;5.22;;;4.20;;
21432;SDS011;18592;49.708;10.900;2022-12-07T13:38:40;6.03;;;5.05;;
21432;SDS011;18592;49.708;10.900;2022-12-07T13:41:04;7.43;;;4.60;;
21432;SDS011;18592;49.708;10.900;2022-12-07T13:43:12;6.43;;;4.82;;
21432;SDS011;18592;49.708;10.900;2022-12-07T13:45:29;7.40;;;4.97;;
21432;SDS011;18592;49.708;10.900;2022-12-07T13:47:54;5.32;;;4.55;;
21432;SDS011;18592;49.708;10.900;2022-12-07T13:49:59;6.68;;;5.32;;
21432;SDS011;18592;49.708;10.900;2022-12-07T13:52:21;7.03;;;5.53;;
21432;SDS011;18592;49.708;10.900;2022-12-07T13:54:24;7.80;;;6.00;;
21432;SDS011;18592;49.708;10.900;2022-12-07T13:56:28;7.88;;;5.45;;
21432;SDS011;18592;49.708;10.900;2022-12-07T13:58:34;8.18;;;5.53;;
21432;SDS011;18592;49.708;10.900;2022-12-07T14:00:36;5.85;;;5.22;;
21432;SDS011;18592;49.708;10.900;2022-12-07T14:02:53;6.80;;;5.60;;
21432;SDS011;18592;49.708;10.900;2022-12-07T14:05:45;7.18;;;5.25;;
21432;SDS011;18592;49.708;10.900;2022-12-07T14:07:29;5.82;;;4.90;;
21432;SDS011;18592;49.708;10.900;2022-12-07T14:09:31;5.63;;;4.38;;